sensor_id;sensor_type;location;lat;lon;timestamp;temperature;humidity
27266;DHT22;14766;51.380;13.762;2023-03-31T00:00:17;13.60;67.80
27266;DHT22;14766;51.380;13.762;2023-03-31T00:02:44;13.60;67.80
27266;DHT22;14766;51.380;13.762;2023-03-31T00:05:12;13.60;67.80
27266;DHT22;14766;51.380;13.762;2023-03-31T00:07:44;13.60;67.70
27266;DHT22;14766;51.380;13.762;2023-03-31T00:10:12;13.60;67.80
27266;DHT22;14766;51.380;13.762;2023-03-31T00:12:44;13.70;67.80
27266;DHT22;14766;51.380;13.762;2023-03-31T00:15:12;13.70;67.70
27266;DHT22;14766;51.380;13.762;2023-03-31T00:17:39;13.70;67.80
27266;DHT22;14766;51.380;13.762;2023-03-31T00:20:06;13.70;67.60
27266;DHT22;14766;51.380;13.762;2023-03-31T00:22:39;13.70;67.60
27266;DHT22;14766;51.380;13.762;2023-03-31T00:25:08;13.70;67.60
27266;DHT22;14766;51.380;13.762;2023-03-31T00:27:37;13.70;67.50
27266;DHT22;14766;51.380;13.762;2023-03-31T00:30:04;13.70;68.20
27266;DHT22;14766;51.380;13.762;2023-03-31T00:32:31;13.70;67.50
27266;DHT22;14766;51.380;13.762;2023-03-31T00:34:59;13.70;67.50
27266;DHT22;14766;51.380;13.762;2023-03-31T00:37:28;13.70;67.50
27266;DHT22;14766;51.380;13.762;2023-03-31T00:39:56;13.70;67.50
27266;DHT22;14766;51.380;13.762;2023-03-31T00:42:23;13.70;67.50
27266;DHT22;14766;51.380;13.762;2023-03-31T00:47:41;13.70;67.40
27266;DHT22;14766;51.380;13.762;2023-03-31T00:50:28;13.70;67.40
27266;DHT22;14766;51.380;13.762;2023-03-31T00:53:11;13.70;67.40
27266;DHT22;14766;51.380;13.762;2023-03-31T00:55:46;13.60;67.40
27266;DHT22;14766;51.380;13.762;2023-03-31T00:58:14;13.60;67.30
27266;DHT22;14766;51.380;13.762;2023-03-31T01:00:49;13.70;67.40
27266;DHT22;14766;51.380;13.762;2023-03-31T01:03:19;13.70;67.20
27266;DHT22;14766;51.380;13.762;2023-03-31T01:05:55;13.80;67.10
27266;DHT22;14766;51.380;13.762;2023-03-31T01:08:25;13.70;67.00
27266;DHT22;14766;51.380;13.762;2023-03-31T01:10:56;13.70;67.00
27266;DHT22;14766;51.380;13.762;2023-03-31T01:13:25;13.80;66.90
27266;DHT22;14766;51.380;13.762;2023-03-31T01:15:53;13.80;66.90
27266;DHT22;14766;51.380;13.762;2023-03-31T01:18:22;13.80;66.80
27266;DHT22;14766;51.380;13.762;2023-03-31T01:29:58;13.90;66.50
27266;DHT22;14766;51.380;13.762;2023-03-31T01:45:04;13.80;66.50
27266;DHT22;14766;51.380;13.762;2023-03-31T01:53:04;13.90;66.60
27266;DHT22;14766;51.380;13.762;2023-03-31T01:55:19;13.90;66.60
27266;DHT22;14766;51.380;13.762;2023-03-31T01:57:58;13.90;66.60
27266;DHT22;14766;51.380;13.762;2023-03-31T02:00:29;13.90;66.50
27266;DHT22;14766;51.380;13.762;2023-03-31T02:03:08;13.90;66.50
27266;DHT22;14766;51.380;13.762;2023-03-31T02:05:46;13.90;66.50
27266;DHT22;14766;51.380;13.762;2023-03-31T02:08:20;13.90;66.50
27266;DHT22;14766;51.380;13.762;2023-03-31T02:10:50;13.90;66.50
27266;DHT22;14766;51.380;13.762;2023-03-31T02:13:20;13.90;66.40
27266;DHT22;14766;51.380;13.762;2023-03-31T02:15:53;13.90;66.20
27266;DHT22;14766;51.380;13.762;2023-03-31T02:18:24;13.90;66.30
27266;DHT22;14766;51.380;13.762;2023-03-31T02:20:53;13.80;66.20
27266;DHT22;14766;51.380;13.762;2023-03-31T02:23:25;13.80;66.30
27266;DHT22;14766;51.380;13.762;2023-03-31T02:28:38;13.80;66.20
27266;DHT22;14766;51.380;13.762;2023-03-31T02:33:37;13.80;66.10
27266;DHT22;14766;51.380;13.762;2023-03-31T02:36:05;13.80;66.00
27266;DHT22;14766;51.380;13.762;2023-03-31T02:38:37;13.80;66.00
27266;DHT22;14766;51.380;13.762;2023-03-31T02:41:06;13.80;66.00
27266;DHT22;14766;51.380;13.762;2023-03-31T02:43:33;13.80;66.00
27266;DHT22;14766;51.380;13.762;2023-03-31T02:46:00;13.80;66.00
27266;DHT22;14766;51.380;13.762;2023-03-31T02:48:39;13.80;66.10
27266;DHT22;14766;51.380;13.762;2023-03-31T03:04:36;13.70;66.10
27266;DHT22;14766;51.380;13.762;2023-03-31T03:13:08;13.80;66.30
27266;DHT22;14766;51.380;13.762;2023-03-31T03:15:46;13.70;66.30
27266;DHT22;14766;51.380;13.762;2023-03-31T03:18:15;13.70;66.30
27266;DHT22;14766;51.380;13.762;2023-03-31T03:20:43;13.70;66.30
27266;DHT22;14766;51.380;13.762;2023-03-31T03:23:15;13.70;66.30
27266;DHT22;14766;51.380;13.762;2023-03-31T03:25:44;13.70;66.30
27266;DHT22;14766;51.380;13.762;2023-03-31T03:28:11;13.70;66.30
27266;DHT22;14766;51.380;13.762;2023-03-31T03:30:39;13.70;66.20
27266;DHT22;14766;51.380;13.762;2023-03-31T03:33:06;13.70;66.20
27266;DHT22;14766;51.380;13.762;2023-03-31T03:35:33;13.70;66.20
27266;DHT22;14766;51.380;13.762;2023-03-31T03:38:00;13.70;66.20
27266;DHT22;14766;51.380;13.762;2023-03-31T03:40:27;13.70;66.10
27266;DHT22;14766;51.380;13.762;2023-03-31T03:42:54;13.60;66.10
27266;DHT22;14766;51.380;13.762;2023-03-31T03:45:21;13.60;66.10
27266;DHT22;14766;51.380;13.762;2023-03-31T03:47:48;13.60;66.10
27266;DHT22;14766;51.380;13.762;2023-03-31T03:50:16;13.60;66.10
27266;DHT22;14766;51.380;13.762;2023-03-31T03:52:43;13.60;66.00
27266;DHT22;14766;51.380;13.762;2023-03-31T03:55:10;13.60;66.00
27266;DHT22;14766;51.380;13.762;2023-03-31T03:57:37;13.60;66.00
27266;DHT22;14766;51.380;13.762;2023-03-31T04:00:05;13.60;66.00
27266;DHT22;14766;51.380;13.762;2023-03-31T04:02:38;13.50;66.00
27266;DHT22;14766;51.380;13.762;2023-03-31T04:05:05;13.50;66.10
27266;DHT22;14766;51.380;13.762;2023-03-31T04:07:33;13.50;66.20
27266;DHT22;14766;51.380;13.762;2023-03-31T04:10:00;13.40;66.20
27266;DHT22;14766;51.380;13.762;2023-03-31T04:12:27;13.50;66.40
27266;DHT22;14766;51.380;13.762;2023-03-31T04:14:54;13.50;66.50
27266;DHT22;14766;51.380;13.762;2023-03-31T04:17:21;13.40;66.70
27266;DHT22;14766;51.380;13.762;2023-03-31T04:20:09;13.40;66.70
27266;DHT22;14766;51.380;13.762;2023-03-31T04:22:37;13.40;66.80
27266;DHT22;14766;51.380;13.762;2023-03-31T04:25:09;13.40;66.90
27266;DHT22;14766;51.380;13.762;2023-03-31T04:27:45;13.30;66.90
27266;DHT22;14766;51.380;13.762;2023-03-31T04:30:16;13.40;67.00
27266;DHT22;14766;51.380;13.762;2023-03-31T04:32:59;13.40;67.00
27266;DHT22;14766;51.380;13.762;2023-03-31T04:35:28;13.40;66.90
27266;DHT22;14766;51.380;13.762;2023-03-31T04:38:21;13.40;67.00
27266;DHT22;14766;51.380;13.762;2023-03-31T04:40:51;13.40;67.00
27266;DHT22;14766;51.380;13.762;2023-03-31T04:43:19;13.40;67.10
27266;DHT22;14766;51.380;13.762;2023-03-31T04:45:47;13.40;67.20
27266;DHT22;14766;51.380;13.762;2023-03-31T04:48:15;13.40;67.30
27266;DHT22;14766;51.380;13.762;2023-03-31T04:50:42;13.40;67.30
27266;DHT22;14766;51.380;13.762;2023-03-31T04:53:09;13.40;67.30
27266;DHT22;14766;51.380;13.762;2023-03-31T04:55:36;13.40;67.40
27266;DHT22;14766;51.380;13.762;2023-03-31T04:58:03;13.40;67.50
27266;DHT22;14766;51.380;13.762;2023-03-31T05:00:31;13.50;67.60
27266;DHT22;14766;51.380;13.762;2023-03-31T05:02:58;13.40;67.50
27266;DHT22;14766;51.380;13.762;2023-03-31T05:05:26;13.50;67.50
27266;DHT22;14766;51.380;13.762;2023-03-31T05:07:53;13.50;67.50
27266;DHT22;14766;51.380;13.762;2023-03-31T05:10:20;13.50;67.50
27266;DHT22;14766;51.380;13.762;2023-03-31T05:12:47;13.50;67.40
27266;DHT22;14766;51.380;13.762;2023-03-31T05:15:15;13.50;67.50
27266;DHT22;14766;51.380;13.762;2023-03-31T05:17:42;13.50;68.30
27266;DHT22;14766;51.380;13.762;2023-03-31T05:20:10;13.60;67.50
27266;DHT22;14766;51.380;13.762;2023-03-31T05:22:39;13.60;67.50
27266;DHT22;14766;51.380;13.762;2023-03-31T05:25:10;13.60;67.40
27266;DHT22;14766;51.380;13.762;2023-03-31T05:27:40;13.60;67.30
27266;DHT22;14766;51.380;13.762;2023-03-31T05:30:07;13.70;67.40
27266;DHT22;14766;51.380;13.762;2023-03-31T05:32:34;13.60;67.30
27266;DHT22;14766;51.380;13.762;2023-03-31T05:35:02;13.60;67.20
27266;DHT22;14766;51.380;13.762;2023-03-31T05:37:29;13.70;67.20
27266;DHT22;14766;51.380;13.762;2023-03-31T05:39:57;13.70;67.20
27266;DHT22;14766;51.380;13.762;2023-03-31T05:42:24;13.70;67.20
27266;DHT22;14766;51.380;13.762;2023-03-31T05:44:51;13.70;67.10
27266;DHT22;14766;51.380;13.762;2023-03-31T05:47:22;13.70;67.00
27266;DHT22;14766;51.380;13.762;2023-03-31T05:49:50;13.80;67.00
27266;DHT22;14766;51.380;13.762;2023-03-31T05:52:17;13.80;67.00
27266;DHT22;14766;51.380;13.762;2023-03-31T05:54:46;13.80;66.90
27266;DHT22;14766;51.380;13.762;2023-03-31T05:57:13;13.80;66.80
27266;DHT22;14766;51.380;13.762;2023-03-31T05:59:41;13.90;66.80
27266;DHT22;14766;51.380;13.762;2023-03-31T06:02:12;13.90;66.70
27266;DHT22;14766;51.380;13.762;2023-03-31T06:04:40;13.90;66.70
27266;DHT22;14766;51.380;13.762;2023-03-31T06:07:08;13.90;66.70
27266;DHT22;14766;51.380;13.762;2023-03-31T06:09:35;14.00;66.80
27266;DHT22;14766;51.380;13.762;2023-03-31T06:12:03;14.00;66.90
27266;DHT22;14766;51.380;13.762;2023-03-31T06:14:31;14.10;67.00
27266;DHT22;14766;51.380;13.762;2023-03-31T06:16:58;14.20;67.20
27266;DHT22;14766;51.380;13.762;2023-03-31T06:19:25;14.30;66.90
27266;DHT22;14766;51.380;13.762;2023-03-31T06:21:52;14.40;66.60
27266;DHT22;14766;51.380;13.762;2023-03-31T06:24:20;14.50;66.30
27266;DHT22;14766;51.380;13.762;2023-03-31T06:26:47;14.50;65.30
27266;DHT22;14766;51.380;13.762;2023-03-31T06:29:14;14.60;65.00
27266;DHT22;14766;51.380;13.762;2023-03-31T06:31:41;14.70;64.90
27266;DHT22;14766;51.380;13.762;2023-03-31T06:34:08;14.70;64.70
27266;DHT22;14766;51.380;13.762;2023-03-31T06:36:35;14.70;64.60
27266;DHT22;14766;51.380;13.762;2023-03-31T06:39:02;14.70;64.60
27266;DHT22;14766;51.380;13.762;2023-03-31T06:41:30;14.80;64.70
27266;DHT22;14766;51.380;13.762;2023-03-31T06:43:56;14.80;64.50
27266;DHT22;14766;51.380;13.762;2023-03-31T06:46:24;14.80;64.50
27266;DHT22;14766;51.380;13.762;2023-03-31T06:48:51;14.90;64.60
27266;DHT22;14766;51.380;13.762;2023-03-31T06:51:18;14.90;64.50
27266;DHT22;14766;51.380;13.762;2023-03-31T06:53:45;15.00;64.30
27266;DHT22;14766;51.380;13.762;2023-03-31T06:56:12;15.00;64.40
27266;DHT22;14766;51.380;13.762;2023-03-31T06:58:39;15.00;64.50
27266;DHT22;14766;51.380;13.762;2023-03-31T07:01:06;15.10;64.60
27266;DHT22;14766;51.380;13.762;2023-03-31T07:03:34;15.20;64.70
27266;DHT22;14766;51.380;13.762;2023-03-31T07:06:02;15.20;64.50
27266;DHT22;14766;51.380;13.762;2023-03-31T07:08:30;15.30;64.00
27266;DHT22;14766;51.380;13.762;2023-03-31T07:10:59;15.30;64.00
27266;DHT22;14766;51.380;13.762;2023-03-31T07:13:27;15.30;63.70
27266;DHT22;14766;51.380;13.762;2023-03-31T07:15:55;15.40;64.00
27266;DHT22;14766;51.380;13.762;2023-03-31T07:18:22;15.40;63.90
27266;DHT22;14766;51.380;13.762;2023-03-31T07:21:01;15.40;63.80
27266;DHT22;14766;51.380;13.762;2023-03-31T07:23:28;15.50;63.90
27266;DHT22;14766;51.380;13.762;2023-03-31T07:25:55;15.50;63.40
27266;DHT22;14766;51.380;13.762;2023-03-31T07:28:22;15.60;63.40
27266;DHT22;14766;51.380;13.762;2023-03-31T07:30:49;15.60;63.50
27266;DHT22;14766;51.380;13.762;2023-03-31T07:33:16;15.60;63.70
27266;DHT22;14766;51.380;13.762;2023-03-31T07:35:43;15.70;63.40
27266;DHT22;14766;51.380;13.762;2023-03-31T07:38:11;15.70;63.20
27266;DHT22;14766;51.380;13.762;2023-03-31T07:40:39;15.70;63.60
27266;DHT22;14766;51.380;13.762;2023-03-31T07:43:07;15.70;63.50
27266;DHT22;14766;51.380;13.762;2023-03-31T07:45:34;15.70;63.30
27266;DHT22;14766;51.380;13.762;2023-03-31T07:48:02;15.70;63.70
27266;DHT22;14766;51.380;13.762;2023-03-31T07:50:29;15.80;64.30
27266;DHT22;14766;51.380;13.762;2023-03-31T07:52:57;15.80;64.00
27266;DHT22;14766;51.380;13.762;2023-03-31T07:55:24;16.00;64.80
27266;DHT22;14766;51.380;13.762;2023-03-31T07:57:53;16.10;64.30
27266;DHT22;14766;51.380;13.762;2023-03-31T08:00:20;16.40;64.60
27266;DHT22;14766;51.380;13.762;2023-03-31T08:02:48;16.60;62.80
27266;DHT22;14766;51.380;13.762;2023-03-31T08:05:18;17.00;63.00
27266;DHT22;14766;51.380;13.762;2023-03-31T08:07:47;17.40;62.50
27266;DHT22;14766;51.380;13.762;2023-03-31T08:10:18;17.90;62.30
27266;DHT22;14766;51.380;13.762;2023-03-31T08:12:47;18.30;59.90
27266;DHT22;14766;51.380;13.762;2023-03-31T08:15:15;18.70;57.70
27266;DHT22;14766;51.380;13.762;2023-03-31T08:17:42;19.00;56.20
27266;DHT22;14766;51.380;13.762;2023-03-31T08:20:10;19.20;56.10
27266;DHT22;14766;51.380;13.762;2023-03-31T08:22:38;19.40;54.20
27266;DHT22;14766;51.380;13.762;2023-03-31T08:25:06;19.60;53.00
27266;DHT22;14766;51.380;13.762;2023-03-31T08:27:35;19.70;52.80
27266;DHT22;14766;51.380;13.762;2023-03-31T08:30:02;19.70;52.20
27266;DHT22;14766;51.380;13.762;2023-03-31T08:32:31;19.60;51.50
27266;DHT22;14766;51.380;13.762;2023-03-31T08:35:00;19.50;51.90
27266;DHT22;14766;51.380;13.762;2023-03-31T08:37:27;19.30;51.30
27266;DHT22;14766;51.380;13.762;2023-03-31T08:39:54;19.10;51.80
27266;DHT22;14766;51.380;13.762;2023-03-31T08:45:21;18.70;52.50
27266;DHT22;14766;51.380;13.762;2023-03-31T08:48:02;18.60;53.10
27266;DHT22;14766;51.380;13.762;2023-03-31T08:50:34;18.40;53.10
27266;DHT22;14766;51.380;13.762;2023-03-31T08:53:15;18.30;53.90
27266;DHT22;14766;51.380;13.762;2023-03-31T08:55:52;18.20;54.40
27266;DHT22;14766;51.380;13.762;2023-03-31T08:58:39;18.20;54.80
27266;DHT22;14766;51.380;13.762;2023-03-31T09:06:40;18.00;55.30
27266;DHT22;14766;51.380;13.762;2023-03-31T09:09:12;18.00;55.70
27266;DHT22;14766;51.380;13.762;2023-03-31T09:11:49;17.90;56.10
27266;DHT22;14766;51.380;13.762;2023-03-31T09:14:47;17.90;56.50
27266;DHT22;14766;51.380;13.762;2023-03-31T09:17:32;17.90;56.40
27266;DHT22;14766;51.380;13.762;2023-03-31T09:20:28;17.80;57.30
27266;DHT22;14766;51.380;13.762;2023-03-31T09:23:18;17.70;57.90
27266;DHT22;14766;51.380;13.762;2023-03-31T09:25:48;17.70;58.20
27266;DHT22;14766;51.380;13.762;2023-03-31T09:28:21;17.70;58.50
27266;DHT22;14766;51.380;13.762;2023-03-31T09:30:50;17.70;58.20
27266;DHT22;14766;51.380;13.762;2023-03-31T09:33:29;17.60;58.30
27266;DHT22;14766;51.380;13.762;2023-03-31T09:36:04;17.60;58.60
27266;DHT22;14766;51.380;13.762;2023-03-31T09:38:35;17.60;58.30
27266;DHT22;14766;51.380;13.762;2023-03-31T09:41:02;17.50;58.90
27266;DHT22;14766;51.380;13.762;2023-03-31T09:43:32;17.50;58.90
27266;DHT22;14766;51.380;13.762;2023-03-31T09:46:17;17.40;59.10
27266;DHT22;14766;51.380;13.762;2023-03-31T09:48:57;17.40;59.40
27266;DHT22;14766;51.380;13.762;2023-03-31T09:51:31;17.40;59.80
27266;DHT22;14766;51.380;13.762;2023-03-31T09:56:49;17.30;59.10
27266;DHT22;14766;51.380;13.762;2023-03-31T09:59:20;17.30;59.00
27266;DHT22;14766;51.380;13.762;2023-03-31T10:01:52;17.20;59.20
27266;DHT22;14766;51.380;13.762;2023-03-31T10:04:24;17.20;58.50
27266;DHT22;14766;51.380;13.762;2023-03-31T10:06:54;17.10;58.70
27266;DHT22;14766;51.380;13.762;2023-03-31T10:09:26;17.00;59.20
27266;DHT22;14766;51.380;13.762;2023-03-31T10:11:56;17.00;59.80
27266;DHT22;14766;51.380;13.762;2023-03-31T10:14:46;16.90;60.20
27266;DHT22;14766;51.380;13.762;2023-03-31T10:17:16;16.90;60.90
27266;DHT22;14766;51.380;13.762;2023-03-31T10:19:50;16.90;60.80
27266;DHT22;14766;51.380;13.762;2023-03-31T10:24:49;16.80;61.50
27266;DHT22;14766;51.380;13.762;2023-03-31T10:27:27;16.70;61.80
27266;DHT22;14766;51.380;13.762;2023-03-31T10:30:00;16.70;62.20
27266;DHT22;14766;51.380;13.762;2023-03-31T10:32:32;16.60;62.60
27266;DHT22;14766;51.380;13.762;2023-03-31T10:35:13;16.60;62.80
27266;DHT22;14766;51.380;13.762;2023-03-31T10:37:48;16.50;62.70
27266;DHT22;14766;51.380;13.762;2023-03-31T10:40:20;16.50;63.10
27266;DHT22;14766;51.380;13.762;2023-03-31T10:43:19;16.40;62.70
27266;DHT22;14766;51.380;13.762;2023-03-31T10:45:51;16.40;62.90
27266;DHT22;14766;51.380;13.762;2023-03-31T10:48:33;16.40;63.90
27266;DHT22;14766;51.380;13.762;2023-03-31T10:51:19;16.30;62.30
27266;DHT22;14766;51.380;13.762;2023-03-31T10:53:50;16.30;62.80
27266;DHT22;14766;51.380;13.762;2023-03-31T11:19:19;16.00;64.10
27266;DHT22;14766;51.380;13.762;2023-03-31T11:22:06;15.90;64.20
27266;DHT22;14766;51.380;13.762;2023-03-31T11:41:36;16.00;65.10
27266;DHT22;14766;51.380;13.762;2023-03-31T11:44:05;16.00;65.10
27266;DHT22;14766;51.380;13.762;2023-03-31T11:47:03;16.00;65.20
27266;DHT22;14766;51.380;13.762;2023-03-31T11:50:01;15.90;65.00
27266;DHT22;14766;51.380;13.762;2023-03-31T11:52:33;15.90;64.90
27266;DHT22;14766;51.380;13.762;2023-03-31T12:05:13;15.80;65.90
27266;DHT22;14766;51.380;13.762;2023-03-31T12:08:00;15.70;66.40
27266;DHT22;14766;51.380;13.762;2023-03-31T12:10:35;15.70;66.20
27266;DHT22;14766;51.380;13.762;2023-03-31T12:18:37;15.60;66.60
27266;DHT22;14766;51.380;13.762;2023-03-31T12:21:08;15.60;67.50
27266;DHT22;14766;51.380;13.762;2023-03-31T12:23:42;15.60;67.30
27266;DHT22;14766;51.380;13.762;2023-03-31T12:26:31;15.60;67.40
27266;DHT22;14766;51.380;13.762;2023-03-31T12:29:19;15.60;67.30
27266;DHT22;14766;51.380;13.762;2023-03-31T12:31:50;15.60;67.50
27266;DHT22;14766;51.380;13.762;2023-03-31T12:34:21;15.50;67.50
27266;DHT22;14766;51.380;13.762;2023-03-31T12:45:27;15.40;67.60
27266;DHT22;14766;51.380;13.762;2023-03-31T12:51:14;15.30;68.30
27266;DHT22;14766;51.380;13.762;2023-03-31T12:56:18;15.20;68.40
27266;DHT22;14766;51.380;13.762;2023-03-31T12:58:46;15.10;68.60
27266;DHT22;14766;51.380;13.762;2023-03-31T13:03:46;15.00;68.70
27266;DHT22;14766;51.380;13.762;2023-03-31T13:08:59;15.00;69.40
27266;DHT22;14766;51.380;13.762;2023-03-31T13:16:49;14.90;69.30
27266;DHT22;14766;51.380;13.762;2023-03-31T13:19:32;14.90;69.30
27266;DHT22;14766;51.380;13.762;2023-03-31T13:22:01;14.90;68.70
27266;DHT22;14766;51.380;13.762;2023-03-31T13:24:30;14.90;69.30
27266;DHT22;14766;51.380;13.762;2023-03-31T13:27:32;14.90;69.20
27266;DHT22;14766;51.380;13.762;2023-03-31T13:30:00;14.80;69.30
27266;DHT22;14766;51.380;13.762;2023-03-31T13:32:27;14.80;69.30
27266;DHT22;14766;51.380;13.762;2023-03-31T13:35:02;14.80;69.20
27266;DHT22;14766;51.380;13.762;2023-03-31T13:43:33;14.80;71.20
27266;DHT22;14766;51.380;13.762;2023-03-31T13:52:11;14.80;69.70
27266;DHT22;14766;51.380;13.762;2023-03-31T13:55:00;14.80;69.80
27266;DHT22;14766;51.380;13.762;2023-03-31T13:58:06;14.70;69.90
27266;DHT22;14766;51.380;13.762;2023-03-31T14:06:37;14.70;69.80
27266;DHT22;14766;51.380;13.762;2023-03-31T14:12:35;14.70;70.10
27266;DHT22;14766;51.380;13.762;2023-03-31T14:15:04;14.70;70.80
27266;DHT22;14766;51.380;13.762;2023-03-31T14:17:35;14.60;70.90
27266;DHT22;14766;51.380;13.762;2023-03-31T14:20:26;14.60;71.10
27266;DHT22;14766;51.380;13.762;2023-03-31T14:26:08;14.60;71.20
27266;DHT22;14766;51.380;13.762;2023-03-31T14:31:15;14.60;71.10
27266;DHT22;14766;51.380;13.762;2023-03-31T14:37:03;14.60;71.80
27266;DHT22;14766;51.380;13.762;2023-03-31T14:39:41;14.60;71.70
27266;DHT22;14766;51.380;13.762;2023-03-31T14:42:16;14.60;71.80
27266;DHT22;14766;51.380;13.762;2023-03-31T14:44:44;14.70;72.20
27266;DHT22;14766;51.380;13.762;2023-03-31T14:47:20;14.80;73.70
27266;DHT22;14766;51.380;13.762;2023-03-31T14:49:58;14.80;72.90
27266;DHT22;14766;51.380;13.762;2023-03-31T14:52:29;14.90;72.10
27266;DHT22;14766;51.380;13.762;2023-03-31T14:54:58;15.00;72.10
27266;DHT22;14766;51.380;13.762;2023-03-31T14:57:37;15.10;72.10
27266;DHT22;14766;51.380;13.762;2023-03-31T15:00:07;15.20;72.40
27266;DHT22;14766;51.380;13.762;2023-03-31T15:02:39;15.30;72.20
27266;DHT22;14766;51.380;13.762;2023-03-31T15:05:12;15.40;72.10
27266;DHT22;14766;51.380;13.762;2023-03-31T15:07:47;15.50;71.50
27266;DHT22;14766;51.380;13.762;2023-03-31T15:10:19;15.50;71.00
27266;DHT22;14766;51.380;13.762;2023-03-31T15:12:50;15.60;70.50
27266;DHT22;14766;51.380;13.762;2023-03-31T15:15:19;15.60;70.40
27266;DHT22;14766;51.380;13.762;2023-03-31T15:17:47;15.70;70.60
27266;DHT22;14766;51.380;13.762;2023-03-31T15:20:38;15.70;70.50
27266;DHT22;14766;51.380;13.762;2023-03-31T15:23:24;15.70;70.00
27266;DHT22;14766;51.380;13.762;2023-03-31T15:26:06;15.80;69.50
27266;DHT22;14766;51.380;13.762;2023-03-31T15:28:48;15.70;69.10
27266;DHT22;14766;51.380;13.762;2023-03-31T15:31:18;15.70;69.00
27266;DHT22;14766;51.380;13.762;2023-03-31T15:33:46;15.70;68.60
27266;DHT22;14766;51.380;13.762;2023-03-31T15:36:13;15.70;68.50
27266;DHT22;14766;51.380;13.762;2023-03-31T15:38:42;15.70;68.20
27266;DHT22;14766;51.380;13.762;2023-03-31T15:41:13;15.70;67.90
27266;DHT22;14766;51.380;13.762;2023-03-31T15:43:44;15.70;68.10
27266;DHT22;14766;51.380;13.762;2023-03-31T15:46:47;15.70;68.10
27266;DHT22;14766;51.380;13.762;2023-03-31T15:49:23;15.70;67.70
27266;DHT22;14766;51.380;13.762;2023-03-31T15:51:51;15.70;67.60
27266;DHT22;14766;51.380;13.762;2023-03-31T15:54:32;15.70;67.40
27266;DHT22;14766;51.380;13.762;2023-03-31T15:57:02;15.70;67.30
27266;DHT22;14766;51.380;13.762;2023-03-31T15:59:51;15.70;67.40
27266;DHT22;14766;51.380;13.762;2023-03-31T16:02:43;15.70;67.70
27266;DHT22;14766;51.380;13.762;2023-03-31T16:05:30;15.70;67.60
27266;DHT22;14766;51.380;13.762;2023-03-31T16:08:13;15.70;67.50
27266;DHT22;14766;51.380;13.762;2023-03-31T16:10:42;15.70;67.90
27266;DHT22;14766;51.380;13.762;2023-03-31T16:13:11;15.60;67.60
27266;DHT22;14766;51.380;13.762;2023-03-31T16:15:48;15.60;67.60
27266;DHT22;14766;51.380;13.762;2023-03-31T16:18:24;15.60;67.60
27266;DHT22;14766;51.380;13.762;2023-03-31T16:20:56;15.60;67.50
27266;DHT22;14766;51.380;13.762;2023-03-31T16:23:29;15.50;67.40
27266;DHT22;14766;51.380;13.762;2023-03-31T16:25:56;15.50;67.50
27266;DHT22;14766;51.380;13.762;2023-03-31T16:28:51;15.50;67.80
27266;DHT22;14766;51.380;13.762;2023-03-31T16:31:35;15.40;68.00
27266;DHT22;14766;51.380;13.762;2023-03-31T16:34:10;15.40;68.00
27266;DHT22;14766;51.380;13.762;2023-03-31T16:36:37;15.40;67.90
27266;DHT22;14766;51.380;13.762;2023-03-31T16:39:05;15.30;67.60
27266;DHT22;14766;51.380;13.762;2023-03-31T16:41:34;15.30;68.00
27266;DHT22;14766;51.380;13.762;2023-03-31T16:44:02;15.20;67.60
27266;DHT22;14766;51.380;13.762;2023-03-31T16:46:29;15.20;67.90
27266;DHT22;14766;51.380;13.762;2023-03-31T16:48:56;15.20;67.70
27266;DHT22;14766;51.380;13.762;2023-03-31T16:51:24;15.10;67.50
27266;DHT22;14766;51.380;13.762;2023-03-31T16:53:52;15.10;67.80
27266;DHT22;14766;51.380;13.762;2023-03-31T16:56:19;15.00;68.10
27266;DHT22;14766;51.380;13.762;2023-03-31T16:58:47;15.00;68.40
27266;DHT22;14766;51.380;13.762;2023-03-31T17:01:15;15.00;68.40
27266;DHT22;14766;51.380;13.762;2023-03-31T17:03:43;15.00;68.50
27266;DHT22;14766;51.380;13.762;2023-03-31T17:06:15;14.90;68.20
27266;DHT22;14766;51.380;13.762;2023-03-31T17:08:42;14.90;67.70
27266;DHT22;14766;51.380;13.762;2023-03-31T17:11:11;14.80;67.10
27266;DHT22;14766;51.380;13.762;2023-03-31T17:13:41;14.80;67.30
27266;DHT22;14766;51.380;13.762;2023-03-31T17:16:09;14.80;67.00
27266;DHT22;14766;51.380;13.762;2023-03-31T17:18:57;14.80;66.10
27266;DHT22;14766;51.380;13.762;2023-03-31T17:21:24;14.70;65.70
27266;DHT22;14766;51.380;13.762;2023-03-31T17:23:52;14.70;64.70
27266;DHT22;14766;51.380;13.762;2023-03-31T17:26:20;14.60;65.20
27266;DHT22;14766;51.380;13.762;2023-03-31T17:28:51;14.60;64.90
27266;DHT22;14766;51.380;13.762;2023-03-31T17:31:20;14.60;65.20
27266;DHT22;14766;51.380;13.762;2023-03-31T17:33:48;14.50;65.10
27266;DHT22;14766;51.380;13.762;2023-03-31T17:36:16;14.50;65.10
27266;DHT22;14766;51.380;13.762;2023-03-31T17:38:44;14.50;65.30
27266;DHT22;14766;51.380;13.762;2023-03-31T17:41:12;14.50;65.30
27266;DHT22;14766;51.380;13.762;2023-03-31T17:43:43;14.50;65.40
27266;DHT22;14766;51.380;13.762;2023-03-31T17:46:10;14.50;65.60
27266;DHT22;14766;51.380;13.762;2023-03-31T17:48:40;14.50;65.90
27266;DHT22;14766;51.380;13.762;2023-03-31T17:51:11;14.50;65.90
27266;DHT22;14766;51.380;13.762;2023-03-31T17:53:42;14.40;65.50
27266;DHT22;14766;51.380;13.762;2023-03-31T17:56:12;14.40;65.40
27266;DHT22;14766;51.380;13.762;2023-03-31T17:58:39;14.40;65.30
27266;DHT22;14766;51.380;13.762;2023-03-31T18:01:08;14.40;65.50
27266;DHT22;14766;51.380;13.762;2023-03-31T18:03:35;14.30;65.60
27266;DHT22;14766;51.380;13.762;2023-03-31T18:06:09;14.30;65.50
27266;DHT22;14766;51.380;13.762;2023-03-31T18:08:38;14.30;65.70
27266;DHT22;14766;51.380;13.762;2023-03-31T18:11:07;14.30;65.70
27266;DHT22;14766;51.380;13.762;2023-03-31T18:13:35;14.20;65.50
27266;DHT22;14766;51.380;13.762;2023-03-31T18:16:04;14.30;65.50
27266;DHT22;14766;51.380;13.762;2023-03-31T18:18:31;14.20;65.50
27266;DHT22;14766;51.380;13.762;2023-03-31T18:21:03;14.20;65.60
27266;DHT22;14766;51.380;13.762;2023-03-31T18:23:32;14.20;65.50
27266;DHT22;14766;51.380;13.762;2023-03-31T18:26:00;14.20;65.30
27266;DHT22;14766;51.380;13.762;2023-03-31T18:28:27;14.10;65.30
27266;DHT22;14766;51.380;13.762;2023-03-31T18:30:54;14.10;65.40
27266;DHT22;14766;51.380;13.762;2023-03-31T18:33:22;14.10;65.60
27266;DHT22;14766;51.380;13.762;2023-03-31T18:35:49;14.10;65.40
27266;DHT22;14766;51.380;13.762;2023-03-31T18:38:16;14.10;65.50
27266;DHT22;14766;51.380;13.762;2023-03-31T18:40:48;14.10;65.60